Time;durP1;ratioP1;P1;durP2;ratioP2;P2;SDS_P1;SDS_P2;PMS_P1;PMS_P2;Temp;Humidity;BMP_temperature;BMP_pressure;BME280_temperature;BME280_humidity;BME280_pressure;Samples;Min_cycle;Max_cycle;Signal;HPM_P1;HPM_P2
2022/12/13 00:01:21;;;;;;;36.00;21.45;;;;;;;-3.31;63.61;96042.38;5035734;28;20046;-75
2022/12/13 00:03:48;;;;;;;36.85;21.98;;;;;;;-3.39;63.87;96041.31;5035865;28;20049;-74
2022/12/13 00:06:17;;;;;;;36.17;20.65;;;;;;;-3.43;63.82;96043.28;5035384;28;20057;-75
2022/12/13 00:08:45;;;;;;;36.70;21.45;;;;;;;-3.44;63.98;96036.53;5035895;28;20053;-75
2022/12/13 00:11:14;;;;;;;41.67;22.30;;;;;;;-3.42;64.09;96039.78;5035620;28;20049;-75
2022/12/13 00:13:45;;;;;;;38.08;21.77;;;;;;;-3.42;64.17;96039.78;5035724;28;20049;-76
2022/12/13 00:16:15;;;;;;;36.85;20.92;;;;;;;-3.41;64.55;96031.22;5036812;28;20053;-75
2022/12/13 00:18:43;;;;;;;38.25;21.50;;;;;;;-3.40;64.54;96030.31;5046905;28;20048;-75
2022/12/13 00:21:14;;;;;;;41.55;22.38;;;;;;;-3.38;64.51;96027.66;5058280;28;20513;-74
2022/12/13 00:23:43;;;;;;;37.05;21.10;;;;;;;-3.37;64.71;96027.53;5058905;28;20072;-74
2022/12/13 00:26:12;;;;;;;35.38;20.45;;;;;;;-3.35;64.60;96027.41;5037914;28;20564;-75
2022/12/13 00:28:41;;;;;;;39.47;21.88;;;;;;;-3.33;64.55;96018.72;5036033;28;20049;-75
2022/12/13 00:31:08;;;;;;;37.30;20.95;;;;;;;-3.30;65.00;96007.53;5036200;28;20499;-75
2022/12/13 00:33:56;;;;;;;41.53;21.52;;;;;;;-3.25;64.50;96010.53;5035590;28;20061;-76
2022/12/13 00:36:23;;;;;;;36.55;21.17;;;;;;;-3.22;64.69;96009.50;5035369;28;20050;-75
2022/12/13 00:39:00;;;;;;;32.85;19.92;;;;;;;-3.19;64.67;96004.16;5034920;28;20057;-75
2022/12/13 00:41:30;;;;;;;35.28;19.25;;;;;;;-3.15;64.65;96008.13;5035283;28;20411;-75
2022/12/13 00:43:57;;;;;;;32.22;18.75;;;;;;;-3.14;64.47;96005.47;5034838;28;20053;-76
2022/12/13 00:46:26;;;;;;;33.35;19.33;;;;;;;-3.19;64.47;95999.91;5034888;28;20060;-75
2022/12/13 00:48:56;;;;;;;36.50;19.23;;;;;;;-3.19;64.53;95994.78;5034587;28;20065;-75
2022/12/13 00:51:25;;;;;;;37.15;20.00;;;;;;;-3.15;65.12;95993.66;5034894;28;20065;-75
2022/12/13 00:53:54;;;;;;;40.10;19.70;;;;;;;-3.06;65.19;95992.16;5034446;28;20507;-75
2022/12/13 00:56:25;;;;;;;34.58;19.48;;;;;;;-3.01;64.61;95996.91;5034575;28;20140;-76
2022/12/13 00:58:54;;;;;;;34.95;20.58;;;;;;;-3.00;64.79;95998.53;5033818;28;20071;-75
2022/12/13 01:01:24;;;;;;;33.92;19.35;;;;;;;-3.01;64.35;95990.06;5034340;28;20050;-75
2022/12/13 01:03:54;;;;;;;30.33;18.70;;;;;;;-3.07;64.10;95998.19;5034580;28;20053;-75
2022/12/13 01:06:26;;;;;;;30.80;17.25;;;;;;;-3.08;64.47;95999.13;5034517;28;20061;-76
2022/12/13 01:08:55;;;;;;;31.27;17.65;;;;;;;-3.09;64.40;95989.81;5034196;28;20049;-75
2022/12/13 01:11:22;;;;;;;31.42;18.27;;;;;;;-3.07;64.62;95989.72;5037813;28;20057;-74
2022/12/13 01:13:50;;;;;;;32.03;17.50;;;;;;;-3.06;64.56;95991.31;5041469;28;20045;-75
2022/12/13 01:16:18;;;;;;;29.40;17.25;;;;;;;-3.05;65.15;95995.53;5038960;28;20415;-76
2022/12/13 01:18:45;;;;;;;32.20;18.83;;;;;;;-3.04;65.19;95994.56;5034051;28;20049;-75
2022/12/13 01:21:15;;;;;;;28.95;17.50;;;;;;;-3.03;65.71;95986.81;5033966;28;20053;-76
2022/12/13 01:23:45;;;;;;;31.80;18.48;;;;;;;-2.98;65.80;95994.13;5064974;22;20055;-83
2022/12/13 01:26:18;;;;;;;30.10;17.88;;;;;;;-2.95;66.36;95997.28;5055613;28;20418;-84
2022/12/13 01:28:47;;;;;;;32.75;17.90;;;;;;;-2.90;66.69;95995.19;5056832;28;20059;-81
2022/12/13 01:31:18;;;;;;;32.95;19.52;;;;;;;-2.91;66.50;95998.69;5056231;28;20040;-82
2022/12/13 01:33:47;;;;;;;35.00;19.08;;;;;;;-2.88;66.71;95996.84;5056452;28;20099;-82
2022/12/13 01:36:18;;;;;;;31.05;17.90;;;;;;;-2.88;66.12;95995.09;5056960;28;20135;-82
2022/12/13 01:38:57;;;;;;;32.97;18.83;;;;;;;-2.91;66.08;95988.47;5056152;28;20067;-82
2022/12/13 01:41:49;;;;;;;33.47;19.02;;;;;;;-2.90;66.54;95989.28;5056787;28;20068;-83
2022/12/13 01:45:02;;;;;;;33.53;17.50;;;;;;;-2.92;66.51;95991.94;5056154;28;20052;-82
2022/12/13 01:47:35;;;;;;;29.30;17.63;;;;;;;-2.90;66.62;95990.09;5056454;28;20055;-82
2022/12/13 01:50:07;;;;;;;33.42;19.00;;;;;;;-2.88;66.29;95984.06;5056739;28;20498;-83
2022/12/13 01:52:40;;;;;;;32.35;18.63;;;;;;;-2.88;65.83;95981.53;5055678;28;20049;-82
2022/12/13 01:55:15;;;;;;;31.30;17.65;;;;;;;-2.89;65.78;95975.59;5055745;28;20064;-82
2022/12/13 01:57:53;;;;;;;30.35;16.75;;;;;;;-2.90;65.67;95974.78;5056149;28;20049;-82
2022/12/13 02:00:28;;;;;;;31.08;18.92;;;;;;;-2.90;66.05;95977.31;5056082;28;20056;-83
2022/12/13 02:03:05;;;;;;;29.60;18.83;;;;;;;-2.90;65.59;95979.88;5053827;28;20053;-82
2022/12/13 02:05:41;;;;;;;31.50;17.95;;;;;;;-2.88;65.96;95974.66;5054862;28;20052;-82
2022/12/13 02:08:18;;;;;;;31.83;17.60;;;;;;;-2.87;65.63;95972.94;5054034;28;20095;-82
2022/12/13 02:10:52;;;;;;;29.83;17.88;;;;;;;-2.91;64.41;95967.22;5054665;28;20554;-82
2022/12/13 02:13:27;;;;;;;28.33;16.10;;;;;;;-2.98;64.21;95968.63;5055051;28;20109;-82
2022/12/13 02:16:10;;;;;;;30.55;16.70;;;;;;;-2.96;65.57;95961.66;5055696;28;20421;-82
2022/12/13 02:19:07;;;;;;;33.35;17.35;;;;;;;-2.92;65.73;95958.75;5055414;28;20072;-81
2022/12/13 02:21:52;;;;;;;30.58;17.83;;;;;;;-2.85;66.05;95960.88;5055968;28;20052;-82
2022/12/13 02:24:42;;;;;;;30.88;17.88;;;;;;;-2.83;66.87;95964.13;5055994;28;20148;-81
2022/12/13 02:27:39;;;;;;;30.27;17.08;;;;;;;-2.79;66.81;95966.31;5055497;28;20051;-82
2022/12/13 02:30:40;;;;;;;28.25;17.30;;;;;;;-2.76;64.62;95963.53;5047053;28;20048;-82
2022/12/13 02:33:39;;;;;;;32.38;17.35;;;;;;;-2.79;65.22;95957.84;5054978;28;20049;-82
2022/12/13 02:36:13;;;;;;;30.08;16.73;;;;;;;-2.83;64.53;95959.00;5046833;28;20049;-82
2022/12/13 02:38:53;;;;;;;29.42;17.77;;;;;;;-2.88;65.31;95958.56;5055372;28;20057;-82
2022/12/13 02:41:36;;;;;;;28.55;16.55;;;;;;;-2.90;65.87;95949.25;5055572;28;20053;-83
2022/12/13 02:44:13;;;;;;;32.97;17.30;;;;;;;-2.98;64.27;95943.91;5053419;28;20048;-81
2022/12/13 02:46:56;;;;;;;29.27;16.85;;;;;;;-3.06;64.69;95945.41;5054231;28;20048;-82
2022/12/13 02:49:29;;;;;;;29.65;17.38;;;;;;;-3.08;65.91;95944.69;5053972;28;20102;-83
2022/12/13 02:51:59;;;;;;;29.83;17.53;;;;;;;-3.10;65.05;95949.94;5056141;28;20056;-85
2022/12/13 02:54:27;;;;;;;30.85;17.35;;;;;;;-3.17;65.20;95949.56;5052928;28;20055;-86
2022/12/13 02:56:56;;;;;;;34.42;18.48;;;;;;;-3.20;64.20;95947.22;5052835;28;20072;-85
2022/12/13 02:59:27;;;;;;;30.67;17.55;;;;;;;-3.26;64.48;95946.88;5052891;28;20068;-85
2022/12/13 03:02:06;;;;;;;35.50;19.98;;;;;;;-3.27;65.63;95945.25;5053153;28;20044;-85
2022/12/13 03:06:28;;;;;;;34.58;18.80;;;;;;;-3.24;66.57;95939.94;5052963;28;20052;-85
2022/12/13 03:07:44;;;;;;;36.50;18.17;;;;;;;-3.20;65.88;95941.31;5056960;28;20481;-81
2022/12/13 03:10:19;;;;;;;30.10;16.83;;;;;;;-3.17;65.31;95941.94;5061776;28;20056;-81
2022/12/13 03:15:45;;;;;;;27.20;16.10;;;;;;;-3.09;65.74;95933.69;5054213;28;20056;-81
2022/12/13 03:18:18;;;;;;;28.38;15.68;;;;;;;-3.07;65.39;95929.28;5054195;28;20094;-82
2022/12/13 03:20:48;;;;;;;29.63;17.10;;;;;;;-3.05;65.81;95935.09;5055516;28;20060;-81
2022/12/13 03:23:17;;;;;;;28.52;17.33;;;;;;;-3.03;66.08;95930.69;5057569;28;20048;-81
2022/12/13 03:25:47;;;;;;;31.08;16.73;;;;;;;-3.01;65.40;95935.69;5058110;28;20045;-81
2022/12/13 03:28:14;;;;;;;28.55;16.50;;;;;;;-3.04;65.09;95926.53;5057469;28;20052;-80
2022/12/13 03:30:42;;;;;;;25.98;16.13;;;;;;;-3.03;65.17;95932.44;5057943;28;20052;-81
2022/12/13 03:33:10;;;;;;;29.35;16.83;;;;;;;-3.03;65.15;95923.03;5057651;28;20096;-81
2022/12/13 03:35:40;;;;;;;30.55;16.20;;;;;;;-3.02;65.86;95924.63;5057924;28;20059;-80
2022/12/13 03:38:14;;;;;;;27.83;14.75;;;;;;;-3.01;65.21;95922.94;5057503;28;20135;-80
2022/12/13 03:40:51;;;;;;;24.30;15.07;;;;;;;-3.00;64.96;95921.97;5057660;28;20084;-81
2022/12/13 03:43:19;;;;;;;24.67;14.38;;;;;;;-2.99;65.60;95918.53;5057159;28;20045;-81
2022/12/13 03:45:49;;;;;;;24.63;14.95;;;;;;;-2.97;65.72;95926.88;5057496;28;20079;-81
2022/12/13 03:48:17;;;;;;;25.83;15.57;;;;;;;-2.97;65.24;95922.56;5057618;28;20056;-81
2022/12/13 03:50:52;;;;;;;27.42;15.93;;;;;;;-2.97;65.02;95925.13;5057743;28;20052;-81
2022/12/13 03:53:21;;;;;;;24.10;13.90;;;;;;;-2.99;65.60;95919.31;5057446;28;20181;-81
2022/12/13 03:56:01;;;;;;;25.50;15.27;;;;;;;-2.99;65.85;95914.22;5057347;28;20056;-81
2022/12/13 03:58:29;;;;;;;25.40;15.10;;;;;;;-2.98;65.51;95909.94;5057232;28;20418;-81
2022/12/13 04:01:05;;;;;;;28.38;15.95;;;;;;;-2.98;64.89;95905.63;5057485;28;20049;-81
2022/12/13 04:03:33;;;;;;;22.58;12.98;;;;;;;-2.99;65.16;95903.22;5057637;28;20052;-82
2022/12/13 04:06:02;;;;;;;27.13;15.60;;;;;;;-3.01;65.43;95900.75;5057624;28;20049;-80
2022/12/13 04:08:30;;;;;;;21.38;14.18;;;;;;;-3.00;65.52;95896.47;5057519;28;20553;-81
2022/12/13 04:10:58;;;;;;;25.40;15.65;;;;;;;-2.98;65.71;95900.53;5057347;28;20045;-81
2022/12/13 04:13:33;;;;;;;20.65;13.43;;;;;;;-2.96;64.98;95903.78;5057393;28;20457;-85
2022/12/13 04:16:02;;;;;;;22.90;13.65;;;;;;;-2.96;64.93;95892.75;5057231;28;20072;-81
2022/12/13 04:18:30;;;;;;;21.38;13.20;;;;;;;-2.96;65.35;95893.56;5057228;28;20529;-81
2022/12/13 04:20:58;;;;;;;20.67;12.65;;;;;;;-2.94;65.30;95890.91;5057015;28;20055;-80
2022/12/13 04:23:27;;;;;;;26.65;15.15;;;;;;;-2.92;65.38;95889.06;5057091;28;20071;-81
2022/12/13 04:25:54;;;;;;;23.98;14.23;;;;;;;-2.91;65.62;95886.41;5057123;28;20400;-81
2022/12/13 04:28:22;;;;;;;21.45;13.55;;;;;;;-2.88;66.08;95884.53;5057053;28;20517;-81
2022/12/13 04:30:50;;;;;;;21.58;13.27;;;;;;;-2.87;65.96;95884.41;5057821;28;20075;-81
2022/12/13 04:33:21;;;;;;;20.30;12.93;;;;;;;-2.85;65.26;95880.00;5057841;28;20072;-81
2022/12/13 04:35:49;;;;;;;21.42;13.27;;;;;;;-2.84;65.29;95880.81;5056824;28;20056;-81
2022/12/13 04:38:17;;;;;;;25.90;13.50;;;;;;;-2.84;65.56;95884.19;5056603;28;20045;-80
2022/12/13 04:40:46;;;;;;;19.67;12.68;;;;;;;-2.83;66.20;95885.00;5057483;28;20126;-81
2022/12/13 04:43:13;;;;;;;25.55;14.70;;;;;;;-2.85;65.21;95897.88;5056825;28;20052;-80
2022/12/13 04:45:41;;;;;;;25.27;14.40;;;;;;;-2.90;64.77;95898.22;5056653;28;20495;-82
2022/12/13 04:48:09;;;;;;;21.48;12.68;;;;;;;-2.91;64.26;95900.88;5056202;28;20049;-81
2022/12/13 04:50:37;;;;;;;20.00;13.18;;;;;;;-2.95;64.15;95891.84;5056743;28;20499;-81
2022/12/13 04:53:04;;;;;;;23.13;13.43;;;;;;;-2.98;64.13;95890.31;5056674;28;20060;-81
2022/12/13 04:55:32;;;;;;;20.05;12.00;;;;;;;-3.00;63.89;95886.25;5056874;28;20060;-81
2022/12/13 04:58:01;;;;;;;18.90;12.02;;;;;;;-3.05;63.70;95891.72;5056459;28;20049;-81
2022/12/13 05:00:29;;;;;;;22.02;12.65;;;;;;;-3.09;63.83;95892.88;5056627;28;20053;-81
2022/12/13 05:02:56;;;;;;;21.83;12.95;;;;;;;-3.12;64.15;95893.09;5056722;28;20549;-81
2022/12/13 05:05:24;;;;;;;22.75;13.43;;;;;;;-3.13;64.98;95886.38;5056283;28;20053;-81
2022/12/13 05:07:51;;;;;;;25.08;14.93;;;;;;;-3.11;65.37;95885.31;5055943;28;20068;-80
2022/12/13 05:10:19;;;;;;;18.70;12.23;;;;;;;-3.10;64.17;95886.16;5056111;28;20053;-80
2022/12/13 05:13:03;;;;;;;19.02;11.45;;;;;;;-3.11;62.80;95879.41;5056507;28;20044;-81
2022/12/13 05:15:31;;;;;;;24.38;12.85;;;;;;;-3.16;63.19;95876.41;5056471;28;20045;-80
2022/12/13 05:18:00;;;;;;;23.95;13.88;;;;;;;-3.19;63.45;95874.91;5056480;28;20060;-81
2022/12/13 05:20:37;;;;;;;19.95;11.77;;;;;;;-3.18;63.59;95875.72;5056554;28;20083;-81
2022/12/13 05:23:04;;;;;;;21.02;13.20;;;;;;;-3.20;63.82;95875.81;5056292;28;20056;-82
2022/12/13 05:25:33;;;;;;;21.98;12.57;;;;;;;-3.21;64.53;95868.28;5055961;28;20052;-81
2022/12/13 05:28:02;;;;;;;21.02;12.30;;;;;;;-3.19;63.88;95871.50;5055993;28;20053;-82
2022/12/13 05:30:52;;;;;;;23.73;13.45;;;;;;;-3.16;64.90;95874.66;5056130;28;20045;-81
2022/12/13 05:33:19;;;;;;;22.65;13.70;;;;;;;-3.16;65.12;95871.31;5055973;28;20052;-81
2022/12/13 05:35:47;;;;;;;23.05;14.10;;;;;;;-3.17;65.01;95874.75;5056220;28;20061;-82
2022/12/13 05:38:15;;;;;;;21.02;13.02;;;;;;;-3.21;65.21;95869.09;5054980;28;20059;-81
2022/12/13 05:40:42;;;;;;;18.30;11.40;;;;;;;-3.21;65.02;95868.28;5055943;28;20071;-81
2022/12/13 05:43:11;;;;;;;20.45;13.68;;;;;;;-3.20;65.54;95870.72;5055556;28;20055;-80
2022/12/13 05:45:48;;;;;;;20.17;12.07;;;;;;;-3.15;65.89;95868.66;5055213;28;20052;-81
2022/12/13 05:48:18;;;;;;;21.48;11.90;;;;;;;-3.12;64.88;95867.59;5055294;28;20139;-81
2022/12/13 05:50:51;;;;;;;19.05;11.80;;;;;;;-3.12;64.31;95862.50;5055587;28;20041;-81
2022/12/13 05:53:38;;;;;;;18.48;11.48;;;;;;;-3.12;64.21;95857.41;5055827;28;20469;-81
2022/12/13 05:56:06;;;;;;;23.27;13.10;;;;;;;-3.16;63.99;95858.56;5055227;28;20060;-81
2022/12/13 05:58:34;;;;;;;25.23;14.60;;;;;;;-3.19;64.86;95856.22;5055634;28;20079;-81
2022/12/13 06:01:09;;;;;;;22.05;12.43;;;;;;;-3.18;64.76;95857.84;5055497;28;20060;-81
2022/12/13 06:03:38;;;;;;;20.90;13.02;;;;;;;-3.17;63.66;95854.34;5055159;28;20059;-81
2022/12/13 06:06:09;;;;;;;20.88;12.35;;;;;;;-3.19;63.65;95851.09;5055589;28;20045;-81
2022/12/13 06:08:37;;;;;;;24.58;13.82;;;;;;;-3.22;63.45;95857.25;5056519;28;20049;-81
2022/12/13 06:11:06;;;;;;;21.90;13.57;;;;;;;-3.26;64.02;95855.06;5055119;28;20132;-80
2022/12/13 06:13:38;;;;;;;20.73;12.43;;;;;;;-3.27;63.44;95864.44;5054714;28;20048;-82
2022/12/13 06:16:11;;;;;;;20.85;11.88;;;;;;;-3.30;62.68;95869.78;5054467;28;20055;-86
2022/12/13 06:18:52;;;;;;;20.27;12.60;;;;;;;-3.33;63.80;95870.81;5053856;28;20052;-84
2022/12/13 06:21:30;;;;;;;20.05;12.15;;;;;;;-3.34;64.03;95874.28;5053782;28;20045;-86
2022/12/13 06:24:12;;;;;;;20.35;10.55;;;;;;;-3.37;63.10;95869.44;5054059;28;20048;-87
2022/12/13 06:26:41;;;;;;;17.02;10.80;;;;;;;-3.39;63.61;95876.38;5054370;28;20060;-86
2022/12/13 06:29:13;;;;;;;20.85;11.90;;;;;;;-3.42;63.33;95871.50;5054555;28;20057;-86
2022/12/13 06:31:53;;;;;;;20.17;12.05;;;;;;;-3.43;62.97;95877.53;5054497;28;20085;-84
2022/12/13 06:34:32;;;;;;;20.52;11.88;;;;;;;-3.46;62.60;95879.50;5054041;28;20131;-83
2022/12/13 06:37:01;;;;;;;21.90;12.48;;;;;;;-3.54;63.58;95887.72;5054846;28;20707;-84
2022/12/13 06:39:30;;;;;;;22.27;12.98;;;;;;;-3.58;62.56;95892.22;5053999;28;20044;-86
2022/12/13 06:42:01;;;;;;;20.05;12.48;;;;;;;-3.67;62.06;95895.44;5044626;28;20053;-85
2022/12/13 06:44:29;;;;;;;19.92;11.65;;;;;;;-3.74;62.27;95889.97;5053456;28;20064;-84
2022/12/13 06:46:57;;;;;;;19.70;12.50;;;;;;;-3.79;62.64;95886.94;5054870;28;20051;-84
2022/12/13 06:49:42;;;;;;;20.80;11.35;;;;;;;-3.84;62.12;95895.84;5053929;28;20132;-86
2022/12/13 06:52:11;;;;;;;20.27;11.67;;;;;;;-3.93;62.53;95892.22;5052969;28;20053;-80
2022/12/13 06:54:40;;;;;;;25.65;13.30;;;;;;;-4.04;62.88;95890.44;5040551;28;20044;-79
2022/12/13 06:57:08;;;;;;;24.87;13.33;;;;;;;-4.12;62.58;95886.81;5067723;28;20048;-83
2022/12/13 06:59:35;;;;;;;25.73;14.38;;;;;;;-4.22;62.97;95887.47;5060727;28;20049;-81
2022/12/13 07:02:03;;;;;;;23.65;12.52;;;;;;;-4.24;63.49;95878.28;5048971;28;20036;-80
2022/12/13 07:04:31;;;;;;;25.88;14.02;;;;;;;-4.27;64.04;95888.69;5051549;28;20426;-78
2022/12/13 07:07:01;;;;;;;21.92;12.27;;;;;;;-4.32;63.87;95880.59;5052408;28;20099;-79
2022/12/13 07:09:30;;;;;;;20.50;12.95;;;;;;;-4.33;64.50;95894.22;5052859;28;20474;-79
2022/12/13 07:11:58;;;;;;;23.35;13.05;;;;;;;-4.31;64.97;95895.72;5050520;28;20061;-80
2022/12/13 07:14:27;;;;;;;23.00;13.05;;;;;;;-4.29;64.99;95901.53;5037378;28;20041;-78
2022/12/13 07:16:54;;;;;;;22.42;13.25;;;;;;;-4.29;65.01;95906.63;5057729;28;20399;-80
2022/12/13 07:19:30;;;;;;;26.63;14.63;;;;;;;-4.24;65.20;95904.59;5061148;28;20071;-78
2022/12/13 07:22:04;;;;;;;29.58;14.18;;;;;;;-4.20;65.81;95906.00;5052669;28;20067;-79
2022/12/13 07:24:32;;;;;;;23.73;14.00;;;;;;;-4.16;65.92;95897.19;5065467;22;20463;-76
2022/12/13 07:27:00;;;;;;;21.77;12.85;;;;;;;-4.15;64.96;95891.19;5059407;28;20045;-74
2022/12/13 07:29:27;;;;;;;23.08;13.15;;;;;;;-4.17;64.79;95889.69;5059634;28;20053;-76
2022/12/13 07:31:55;;;;;;;25.17;14.25;;;;;;;-4.15;65.29;95892.94;5051302;28;20133;-75
2022/12/13 07:34:28;;;;;;;21.20;13.20;;;;;;;-4.15;64.72;95891.19;5075692;28;20135;-75
2022/12/13 07:36:56;;;;;;;24.77;13.05;;;;;;;-4.14;64.80;95897.91;5048229;28;20491;-75
2022/12/13 07:39:25;;;;;;;23.67;13.63;;;;;;;-4.11;64.94;95898.59;5043442;28;20057;-75
2022/12/13 07:41:55;;;;;;;24.80;13.00;;;;;;;-4.08;65.18;95903.50;5034311;28;20430;-74
2022/12/13 07:44:23;;;;;;;23.52;11.88;;;;;;;-4.07;64.59;95900.81;5041697;28;20048;-75
2022/12/13 07:46:51;;;;;;;24.67;14.10;;;;;;;-4.09;64.60;95895.03;5036842;28;20072;-75
2022/12/13 07:49:19;;;;;;;23.70;13.07;;;;;;;-4.09;64.64;95891.69;5039667;28;20080;-75
2022/12/13 07:51:46;;;;;;;26.15;14.23;;;;;;;-4.12;64.09;95885.06;5040082;28;20045;-75
2022/12/13 07:54:14;;;;;;;24.80;13.57;;;;;;;-4.21;63.85;95886.53;5035968;28;20400;-76
2022/12/13 07:56:43;;;;;;;25.08;14.18;;;;;;;-4.25;63.87;95890.22;5037689;28;20060;-75
2022/12/13 07:59:12;;;;;;;27.73;14.40;;;;;;;-4.26;63.89;95891.16;5046879;28;20045;-76
2022/12/13 08:01:39;;;;;;;27.70;14.98;;;;;;;-4.23;65.02;95895.22;5043268;28;20060;-75
2022/12/13 08:04:07;;;;;;;26.50;13.65;;;;;;;-4.19;64.85;95887.25;5050294;28;20059;-75
2022/12/13 08:06:35;;;;;;;29.33;16.27;;;;;;;-4.17;64.60;95895.59;5059110;28;20057;-76
2022/12/13 08:09:03;;;;;;;26.45;14.82;;;;;;;-4.13;65.06;95901.28;5076996;28;20039;-75
2022/12/13 08:11:32;;;;;;;24.23;14.63;;;;;;;-4.09;64.29;95902.66;5061592;28;20106;-75
2022/12/13 08:14:01;;;;;;;23.85;14.15;;;;;;;-4.11;63.73;95902.00;5043757;28;20045;-75
2022/12/13 08:16:28;;;;;;;24.90;13.60;;;;;;;-4.09;64.17;95901.88;5037667;28;20052;-76
2022/12/13 08:18:57;;;;;;;24.83;13.23;;;;;;;-4.02;64.85;95897.97;5045954;28;20127;-76
2022/12/13 08:21:34;;;;;;;23.23;13.50;;;;;;;-3.91;65.77;95894.63;5056112;28;20053;-76
2022/12/13 08:24:22;;;;;;;25.10;13.40;;;;;;;-3.80;65.55;95898.06;5042256;28;20045;-75
2022/12/13 08:26:50;;;;;;;24.63;13.13;;;;;;;-3.73;65.61;95898.44;5038696;28;20084;-76
2022/12/13 08:29:19;;;;;;;21.20;12.98;;;;;;;-3.64;66.21;95902.84;5051791;28;20051;-75
2022/12/13 08:32:00;;;;;;;20.80;11.90;;;;;;;-3.57;65.69;95905.78;5049490;28;20140;-75
2022/12/13 08:34:28;;;;;;;23.95;12.52;;;;;;;-3.50;65.99;95904.38;5035660;28;20084;-75
2022/12/13 08:36:56;;;;;;;22.75;13.02;;;;;;;-3.42;65.76;95914.03;5036302;28;20557;-76
2022/12/13 08:39:29;;;;;;;23.23;12.75;;;;;;;-3.35;65.73;95913.47;5055601;28;20473;-75
2022/12/13 08:42:00;;;;;;;21.52;12.50;;;;;;;-3.31;65.71;95919.16;5049482;28;20149;-75
2022/12/13 08:44:50;;;;;;;21.00;12.93;;;;;;;-3.31;63.91;95919.16;5044920;28;20502;-76
2022/12/13 08:47:18;;;;;;;19.50;11.38;;;;;;;-3.33;63.81;95921.81;5061572;28;20045;-75
2022/12/13 08:49:53;;;;;;;21.67;11.93;;;;;;;-3.33;64.44;95921.00;5049398;28;20048;-76
2022/12/13 08:52:22;;;;;;;20.85;11.25;;;;;;;-3.32;64.17;95927.75;5038508;28;20064;-75
2022/12/13 08:54:49;;;;;;;21.35;12.13;;;;;;;-3.29;63.83;95926.72;5035570;28;20547;-75
2022/12/13 08:57:17;;;;;;;22.13;11.70;;;;;;;-3.29;63.49;95919.06;5041009;28;20049;-76
2022/12/13 08:59:45;;;;;;;18.45;10.88;;;;;;;-3.26;63.23;95913.72;5047110;28;20045;-75
2022/12/13 09:02:14;;;;;;;17.00;10.38;;;;;;;-3.25;64.17;95905.16;5046659;28;20050;-76
2022/12/13 09:04:42;;;;;;;22.15;12.15;;;;;;;-3.19;63.94;95902.97;5035010;28;20136;-76
2022/12/13 09:07:10;;;;;;;18.05;11.73;;;;;;;-3.17;64.08;95913.88;5047847;28;20083;-75
2022/12/13 09:09:37;;;;;;;17.27;11.18;;;;;;;-3.18;63.57;95911.41;5052845;28;20055;-77
2022/12/13 09:12:05;;;;;;;17.50;10.57;;;;;;;-3.20;63.20;95906.41;5067386;28;20048;-75
2022/12/13 09:14:53;;;;;;;17.63;10.50;;;;;;;-3.20;62.87;95908.97;5068646;28;20048;-75
2022/12/13 09:17:32;;;;;;;17.38;10.40;;;;;;;-3.22;62.45;95907.47;5062052;28;20462;-75
2022/12/13 09:20:06;;;;;;;16.38;9.70;;;;;;;-3.28;62.49;95908.75;5051330;28;20060;-76
2022/12/13 09:22:54;;;;;;;15.70;9.80;;;;;;;-3.34;62.45;95899.81;5052144;28;20106;-75
2022/12/13 09:25:30;;;;;;;20.63;10.70;;;;;;;-3.31;62.96;95899.56;5045737;28;20087;-75
2022/12/13 09:28:06;;;;;;;19.45;11.15;;;;;;;-3.21;63.45;95898.91;5045842;28;20060;-76
2022/12/13 09:30:34;;;;;;;18.40;10.10;;;;;;;-3.12;63.01;95900.75;5035004;28;20057;-76
2022/12/13 09:33:03;;;;;;;16.30;9.82;;;;;;;-3.00;63.12;95904.13;5037542;28;20042;-76
2022/12/13 09:35:50;;;;;;;17.98;9.60;;;;;;;-2.93;62.45;95898.47;5054043;28;20573;-76
2022/12/13 09:38:18;;;;;;;18.15;9.40;;;;;;;-2.87;62.45;95896.34;5039053;28;20083;-75
2022/12/13 09:40:49;;;;;;;16.15;8.73;;;;;;;-2.82;62.30;95895.09;5038461;28;20045;-75
2022/12/13 09:43:30;;;;;;;16.70;9.95;;;;;;;-2.74;62.27;95892.75;5051774;28;20571;-75
2022/12/13 09:46:05;;;;;;;16.77;9.45;;;;;;;-2.64;62.68;95897.97;5034982;28;20046;-75
2022/12/13 09:48:52;;;;;;;16.23;8.90;;;;;;;-2.52;62.69;95891.09;5040556;28;20049;-75
2022/12/13 09:51:29;;;;;;;15.15;9.32;;;;;;;-2.38;63.61;95893.41;5054553;28;20489;-75
2022/12/13 09:54:18;;;;;;;15.82;8.82;;;;;;;-2.25;62.87;95890.72;5043734;28;20065;-75
2022/12/13 09:56:49;;;;;;;15.75;9.60;;;;;;;-2.16;62.57;95890.00;5036232;28;20053;-75
2022/12/13 09:59:21;;;;;;;14.60;8.10;;;;;;;-2.10;61.37;95891.25;5045652;28;20110;-75
2022/12/13 10:01:48;;;;;;;15.98;8.57;;;;;;;-2.08;61.24;95890.22;5045726;28;20056;-76
2022/12/13 10:04:18;;;;;;;14.77;8.73;;;;;;;-2.04;60.66;95887.41;5052974;28;20052;-75
2022/12/13 10:06:45;;;;;;;17.30;8.82;;;;;;;-2.04;60.51;95884.84;5053211;28;20530;-75
2022/12/13 10:09:14;;;;;;;16.35;9.57;;;;;;;-2.02;60.71;95888.09;5049678;28;20084;-75
2022/12/13 10:11:48;;;;;;;18.17;10.63;;;;;;;-1.95;60.41;95887.47;5034776;28;20151;-75
2022/12/13 10:14:23;;;;;;;15.98;10.15;;;;;;;-1.85;60.05;95892.69;5037052;28;20056;-76
2022/12/13 10:16:52;;;;;;;18.38;9.30;;;;;;;-1.77;60.17;95892.88;5053298;28;20057;-76
2022/12/13 10:19:28;;;;;;;16.38;9.80;;;;;;;-1.69;59.51;95885.38;5043112;28;20137;-75
2022/12/13 10:21:57;;;;;;;16.23;9.95;;;;;;;-1.62;59.69;95879.78;5034652;28;20068;-75
2022/12/13 10:24:30;;;;;;;16.90;9.48;;;;;;;-1.59;59.14;95879.56;5046316;28;20041;-75
2022/12/13 10:27:11;;;;;;;14.02;9.30;;;;;;;-1.60;58.44;95878.72;5056344;28;20089;-76
2022/12/13 10:30:01;;;;;;;14.13;8.98;;;;;;;-1.54;59.42;95877.41;5065274;28;20175;-76
2022/12/13 10:32:32;;;;;;;16.00;9.32;;;;;;;-1.52;58.78;95880.66;5053190;28;20140;-75
2022/12/13 10:35:21;;;;;;;14.27;8.60;;;;;;;-1.51;57.49;95872.03;5065647;28;20084;-75
2022/12/13 10:37:49;;;;;;;15.27;10.48;;;;;;;-1.47;59.28;95869.09;5073777;28;20053;-75
2022/12/13 10:40:44;;;;;;;16.98;9.70;;;;;;;-1.34;58.44;95863.81;5061998;28;20047;-76
2022/12/13 10:43:13;;;;;;;14.40;9.35;;;;;;;-1.25;59.93;95864.78;5034063;28;20063;-74
2022/12/13 10:45:41;;;;;;;17.58;9.90;;;;;;;-1.17;58.88;95862.41;5041219;28;20430;-76
2022/12/13 10:48:19;;;;;;;17.90;9.55;;;;;;;-1.11;57.16;95866.22;5042573;28;20139;-75
2022/12/13 10:51:00;;;;;;;16.38;9.48;;;;;;;-1.09;56.77;95864.34;5048301;28;20056;-75
2022/12/13 10:53:32;;;;;;;15.68;9.18;;;;;;;-1.08;58.13;95860.84;5051477;28;20051;-75
2022/12/13 10:56:01;;;;;;;15.93;9.43;;;;;;;-1.00;57.84;95866.16;5049630;28;20506;-76
2022/12/13 10:58:38;;;;;;;18.88;10.23;;;;;;;-0.88;57.32;95865.09;5050803;28;20438;-75
2022/12/13 11:01:22;;;;;;;18.33;10.07;;;;;;;-0.78;57.95;95849.78;5048807;28;20462;-76
2022/12/13 11:03:58;;;;;;;16.52;9.68;;;;;;;-0.68;58.57;95847.25;5059446;28;20045;-75
2022/12/13 11:06:42;;;;;;;18.55;10.10;;;;;;;-0.59;56.94;95849.03;5068058;28;20045;-75
2022/12/13 11:09:15;;;;;;;17.92;10.20;;;;;;;-0.54;56.46;95851.19;5058586;28;20057;-76
2022/12/13 11:11:51;;;;;;;14.43;9.13;;;;;;;-0.57;56.26;95849.69;5050137;28;20080;-76
2022/12/13 11:14:29;;;;;;;13.18;8.60;;;;;;;-0.62;56.09;95844.16;5051849;28;20041;-75
2022/12/13 11:17:07;;;;;;;16.85;9.77;;;;;;;-0.63;56.59;95853.59;5043210;28;20037;-75
2022/12/13 11:19:39;;;;;;;14.48;8.95;;;;;;;-0.60;55.75;95856.84;5048951;28;20418;-75
2022/12/13 11:22:10;;;;;;;12.77;8.38;;;;;;;-0.66;55.61;95847.91;5037033;28;20129;-76
2022/12/13 11:24:41;;;;;;;20.45;10.23;;;;;;;-0.74;55.63;95847.78;5037307;28;20041;-75
2022/12/13 11:27:26;;;;;;;15.73;9.55;;;;;;;-0.77;54.50;95840.34;5032503;28;20555;-76
2022/12/13 11:30:08;;;;;;;14.98;9.35;;;;;;;-0.78;54.48;95833.63;5040730;28;20045;-75
2022/12/13 11:32:52;;;;;;;13.75;8.45;;;;;;;-0.73;55.45;95832.25;5049991;28;20120;-75
2022/12/13 11:35:32;;;;;;;16.52;9.90;;;;;;;-0.64;55.47;95828.09;5046796;28;20046;-75
2022/12/13 11:38:12;;;;;;;18.08;10.77;;;;;;;-0.56;55.93;95830.84;5045903;28;20135;-76
2022/12/13 11:40:44;;;;;;;16.23;9.77;;;;;;;-0.49;55.08;95819.09;5034523;28;20049;-76
2022/12/13 11:43:21;;;;;;;16.77;10.13;;;;;;;-0.45;54.99;95824.78;5047800;28;20053;-76
2022/12/13 11:45:54;;;;;;;15.68;9.85;;;;;;;-0.38;54.77;95819.94;5041853;28;20045;-75
2022/12/13 11:48:32;;;;;;;17.55;9.23;;;;;;;-0.36;54.63;95815.50;5051117;28;20118;-75